METAR Data
IDs: Format: Raw Decoded Include TAF

Data at: 1532 UTC 25 Jan 2020

METAR for:KRDK (Red Oak Muni, IA, US)
Text:KRDK 251515Z AUTO 25009KT 9SM OVC023 M03/M04 A3010 RMK AO2
Temperature: -3.0°C ( 27°F)
Dewpoint: -4.0°C ( 25°F) [RH = 93%]
Pressure (altimeter):30.10 inches Hg (1019.4 mb)
Winds:from the WSW (250 degrees) at 10 MPH (9 knots; 4.6 m/s)
Visibility: 9 sm ( 14 km)
Ceiling:2300 feet AGL
Clouds: overcast cloud deck at 2300 feet AGL
QC Flag:automated observation with no human augmentation